KMPV/MPV METAR and TAF weather

Enter ICAO airport designator
Station Type Date Time Source
KMPV METAR 2020/12/05 05:44 UTC NOAA

KMPV 050544Z AUTO 19006KT 10SM -RA FEW020 SCT027 OVC036 04/02 A2989 RMK AO2 RAB0458 P0000 T00390022


Station Type Date Time Source
KMPV Decoded METAR 2020/12/05 05:44 UTC NOAA

KNAPP STATE AIRPORT, VT, United States (KMPV) 44-12N 072-34W 343M
Dec 05, 2020 - 12:44 AM EST / 2020.12.05 0544 UTC
Wind: from the S (190 degrees) at 7 MPH (6 KT):0
Visibility: 10 mile(s):0
Sky conditions: overcast
Weather: light rain
Precipitation last hour: A trace
Temperature: 39.0 F (3.9 C)
Dew Point: 36.0 F (2.2 C)
Relative Humidity: 88%
Pressure (altimeter): 29.89 in. Hg (1012 hPa)
ob: KMPV 050544Z AUTO 19006KT 10SM -RA FEW020 SCT027 OVC036 04/02 A2989 RMK AO2 RAB0458 P0000 T00390022
cycle: 5

Station Type Date Time Source
KMPV TAF 2020/12/05 06:22 UTC NOAA

TAF KMPV 050520Z 0506/0606 25005KT P6SM VCSH BKN035 OVC050
FM050900 00000KT P6SM OVC025
FM051200 VRB03KT P6SM OVC015
FM051500 35005KT P6SM VCSH OVC025
FM051800 35008KT 1 1/2SM -SN BR OVC016
FM060000 35009KT 1 1/2SM -SN BR OVC012 WS020/36045KT

Example: see airport list